Time;durP1;ratioP1;P1;durP2;ratioP2;P2;SDS_P1;SDS_P2;PMS_P1;PMS_P2;Temp;Humidity;BMP_temperature;BMP_pressure;BME280_temperature;BME280_humidity;BME280_pressure;Samples;Min_cycle;Max_cycle;Signal;HPM_P1;HPM_P2
2021/03/03 00:02:01;;;;;;;15.63;10.27;;;3.20;99.90;;;;;;4966864;28;20392;-77
2021/03/03 00:04:27;;;;;;;16.13;10.90;;;2.90;99.90;;;;;;4965332;28;20392;-77
2021/03/03 00:06:53;;;;;;;16.43;11.50;;;;;;;;;;4960755;28;20400;-77
2021/03/03 00:09:18;;;;;;;16.05;10.40;;;2.90;99.90;;;;;;4962240;28;20415;-77
2021/03/03 00:11:44;;;;;;;16.20;10.70;;;;;;;;;;4966646;28;20396;-77
2021/03/03 00:14:10;;;;;;;15.57;10.70;;;3.00;99.90;;;;;;4967684;28;20490;-76
2021/03/03 00:16:36;;;;;;;16.60;10.73;;;3.00;99.90;;;;;;4953659;28;21210;-77
2021/03/03 00:19:02;;;;;;;17.80;10.93;;;2.80;99.90;;;;;;4953742;28;20398;-76
2021/03/03 00:21:28;;;;;;;16.48;10.70;;;;;;;;;;4944147;28;20398;-78
2021/03/03 00:23:53;;;;;;;16.48;11.40;;;2.90;99.90;;;;;;4954413;29;20392;-79
2021/03/03 00:26:19;;;;;;;16.63;10.60;;;;;;;;;;4948671;28;20395;-78
2021/03/03 00:28:46;;;;;;;15.47;10.33;;;2.70;99.90;;;;;;4951284;29;20837;-78
2021/03/03 00:31:12;;;;;;;18.17;11.50;;;;;;;;;;4935824;29;20579;-79
2021/03/03 00:33:38;;;;;;;19.60;13.05;;;2.50;99.90;;;;;;4951325;28;20394;-78
2021/03/03 00:36:03;;;;;;;16.40;11.30;;;2.70;99.90;;;;;;4968279;28;20855;-78
2021/03/03 00:38:29;;;;;;;17.03;11.03;;;2.50;99.90;;;;;;4955332;28;20408;-78
2021/03/03 00:40:55;;;;;;;17.40;10.88;;;3.00;99.90;;;;;;4955787;28;20869;-78
2021/03/03 00:43:21;;;;;;;15.85;10.93;;;;;;;;;;4943092;29;20396;-79
2021/03/03 00:45:46;;;;;;;14.30;10.02;;;2.60;99.90;;;;;;4935647;29;20427;-76
2021/03/03 00:48:12;;;;;;;15.73;10.77;;;2.50;99.90;;;;;;4945782;29;20382;-76
2021/03/03 00:50:38;;;;;;;14.87;10.30;;;2.50;99.90;;;;;;4952024;28;20428;-76
2021/03/03 00:53:09;;;;;;;16.03;10.50;;;2.50;99.90;;;;;;4953556;28;20751;-76
2021/03/03 00:55:35;;;;;;;16.52;11.00;;;2.40;99.90;;;;;;4936640;29;20536;-75
2021/03/03 00:58:00;;;;;;;16.10;10.60;;;2.30;99.90;;;;;;4937021;29;20848;-75
2021/03/03 01:00:26;;;;;;;18.03;11.00;;;2.30;99.90;;;;;;4948603;28;20411;-75
2021/03/03 01:02:53;;;;;;;15.77;11.10;;;;;;;;;;4936199;29;20392;-75
2021/03/03 01:05:19;;;;;;;15.93;11.32;;;2.30;99.90;;;;;;4936697;29;20771;-75
2021/03/03 01:07:44;;;;;;;17.40;11.37;;;;;;;;;;4936283;29;20398;-77
2021/03/03 01:10:10;;;;;;;16.42;11.32;;;2.30;99.90;;;;;;4940235;29;20474;-79
2021/03/03 01:12:36;;;;;;;18.45;12.23;;;2.30;99.90;;;;;;4940781;29;20442;-77
2021/03/03 01:15:04;;;;;;;16.10;11.37;;;2.20;99.90;;;;;;4937875;29;20513;-77
2021/03/03 01:17:29;;;;;;;17.30;11.27;;;2.20;99.90;;;;;;4936216;29;20502;-76
2021/03/03 01:19:55;;;;;;;19.77;11.52;;;2.30;99.90;;;;;;4951051;28;20483;-77
2021/03/03 01:22:21;;;;;;;17.95;11.55;;;2.20;99.90;;;;;;4936181;29;20391;-78
2021/03/03 01:24:46;;;;;;;15.43;11.48;;;2.30;99.90;;;;;;4936764;29;20406;-77
2021/03/03 01:27:12;;;;;;;16.58;11.30;;;2.20;99.90;;;;;;4936409;29;20451;-77
2021/03/03 01:29:37;;;;;;;16.73;11.35;;;2.30;99.90;;;;;;4936324;29;20404;-78
2021/03/03 01:32:03;;;;;;;15.45;10.35;;;2.30;99.90;;;;;;4936036;29;20384;-75
2021/03/03 01:34:28;;;;;;;16.02;11.07;;;2.30;99.90;;;;;;4943219;29;20406;-75
2021/03/03 01:36:54;;;;;;;17.40;11.38;;;2.30;99.90;;;;;;4954211;28;20405;-75
2021/03/03 01:39:19;;;;;;;15.95;11.40;;;2.20;99.90;;;;;;4935833;29;21087;-75
2021/03/03 01:41:45;;;;;;;17.95;11.93;;;2.20;99.90;;;;;;4949064;29;20440;-75
2021/03/03 01:44:11;;;;;;;17.67;11.20;;;;;;;;;;4947934;28;20454;-76
2021/03/03 01:46:36;;;;;;;18.08;11.85;;;1.90;99.90;;;;;;4948539;29;20417;-76
2021/03/03 01:49:02;;;;;;;16.33;11.63;;;;;;;;;;4942789;29;20785;-75
2021/03/03 01:51:29;;;;;;;14.68;10.57;;;2.40;99.90;;;;;;4950365;28;20411;-76
2021/03/03 01:53:55;;;;;;;15.73;11.07;;;1.80;99.90;;;;;;4935744;29;20396;-76
2021/03/03 01:56:21;;;;;;;16.23;10.95;;;;;;;;;;4949626;29;20398;-77
2021/03/03 01:58:46;;;;;;;16.77;11.70;;;1.90;99.90;;;;;;4948978;28;20442;-76
2021/03/03 02:01:13;;;;;;;18.20;11.43;;;;;;;;;;4937367;28;20482;-77
2021/03/03 02:03:39;;;;;;;18.27;11.68;;;1.80;99.90;;;;;;4947961;28;20888;-78
2021/03/03 02:06:16;;;;;;;16.17;11.27;;;1.90;99.90;;;;;;4935974;29;20504;-78
2021/03/03 02:09:01;;;;;;;16.33;11.47;;;;;;;;;;4945106;29;20482;-80
2021/03/03 02:11:56;;;;;;;;;;;;;;;;;;;;;
2021/03/03 02:14:28;;;;;;;15.97;11.33;;;;;;;;;;4935842;29;20392;-78
2021/03/03 02:16:55;;;;;;;16.60;11.60;;;1.90;99.90;;;;;;4945098;29;20386;-76
2021/03/03 02:19:28;;;;;;;16.95;11.50;;;1.60;99.90;;;;;;4940397;28;20447;-77
2021/03/03 02:22:04;;;;;;;15.75;11.15;;;1.50;99.90;;;;;;4936637;29;20811;-77
2021/03/03 02:24:32;;;;;;;17.30;10.90;;;;;;;;;;4949746;29;20384;-76
2021/03/03 02:26:58;;;;;;;18.20;12.50;;;1.60;99.90;;;;;;4936473;29;20423;-76
2021/03/03 02:29:26;;;;;;;17.05;11.73;;;1.90;99.90;;;;;;4935603;29;20387;-77
2021/03/03 02:31:52;;;;;;;19.00;12.43;;;1.30;99.90;;;;;;4935606;29;20395;-76
2021/03/03 02:34:23;;;;;;;17.93;12.53;;;1.40;99.90;;;;;;4959246;28;20403;-75
2021/03/03 02:36:51;;;;;;;17.50;12.07;;;1.40;99.90;;;;;;4961090;28;20813;-76
2021/03/03 02:39:20;;;;;;;18.70;12.02;;;1.40;99.90;;;;;;4935636;29;20873;-77
2021/03/03 02:41:47;;;;;;;19.42;12.48;;;1.90;99.90;;;;;;4935427;29;20871;-76
2021/03/03 02:44:12;;;;;;;18.67;12.70;;;1.40;99.90;;;;;;4942550;29;20390;-76
2021/03/03 02:46:41;;;;;;;18.50;11.70;;;0.80;99.90;;;;;;4954223;28;20412;-75
2021/03/03 02:49:07;;;;;;;19.05;12.23;;;;;;;;;;4942732;29;20389;-77
2021/03/03 02:51:33;;;;;;;19.40;11.90;;;1.10;99.90;;;;;;4941865;28;20392;-77
2021/03/03 02:53:58;;;;;;;17.33;11.83;;;1.10;99.90;;;;;;4954980;28;20390;-76
2021/03/03 02:56:25;;;;;;;17.97;11.93;;;;;;;;;;4941651;28;20403;-76
2021/03/03 02:58:52;;;;;;;19.00;12.85;;;1.10;99.90;;;;;;4954480;29;20402;-77
2021/03/03 03:01:18;;;;;;;19.45;12.82;;;1.10;99.90;;;;;;4942316;28;20454;-77
2021/03/03 03:03:55;;;;;;;18.73;12.65;;;1.20;99.90;;;;;;4947586;29;20426;-77
2021/03/03 03:06:28;;;;;;;19.60;12.93;;;1.30;99.90;;;;;;4948177;29;20417;-76
2021/03/03 03:08:59;;;;;;;21.60;13.55;;;1.20;99.90;;;;;;4945264;29;20382;-77
2021/03/03 03:11:26;;;;;;;20.40;13.50;;;1.20;99.90;;;;;;4936708;29;20446;-77
2021/03/03 03:13:58;;;;;;;21.30;13.73;;;1.20;99.90;;;;;;4945994;29;20444;-78
2021/03/03 03:16:24;;;;;;;21.30;13.88;;;1.10;99.90;;;;;;4950057;28;20482;-77
2021/03/03 03:18:54;;;;;;;20.73;13.43;;;1.50;99.90;;;;;;4948035;29;20441;-78
2021/03/03 03:21:21;;;;;;;19.35;12.93;;;1.10;99.90;;;;;;4953739;28;20390;-77
2021/03/03 03:23:47;;;;;;;19.80;13.20;;;;;;;;;;4954851;28;20405;-78
2021/03/03 03:26:13;;;;;;;20.75;12.90;;;;;;;;;;4950628;28;20415;-77
2021/03/03 03:28:40;;;;;;;18.00;12.27;;;;;;;;;;4943422;29;20387;-77
2021/03/03 03:31:07;;;;;;;17.38;12.18;;;1.20;99.90;;;;;;4935098;29;20387;-77
2021/03/03 03:33:34;;;;;;;19.48;12.80;;;;;;;;;;4936321;29;20419;-77
2021/03/03 03:36:02;;;;;;;20.20;13.80;;;1.20;99.90;;;;;;4936092;29;20417;-77
2021/03/03 03:38:29;;;;;;;21.20;14.00;;;1.10;99.90;;;;;;4948936;29;20809;-76
2021/03/03 03:40:55;;;;;;;20.85;13.77;;;1.20;99.90;;;;;;4950443;28;20482;-77
2021/03/03 03:43:23;;;;;;;18.42;12.35;;;1.10;99.90;;;;;;4954717;28;20762;-78
2021/03/03 03:45:49;;;;;;;19.17;12.63;;;1.40;99.90;;;;;;4943808;29;20393;-79
2021/03/03 03:48:26;;;;;;;20.08;13.52;;;;;;;;;;4956585;28;20470;-81
2021/03/03 03:50:55;;;;;;;20.33;12.68;;;;;;;;;;4940671;28;20426;-81
2021/03/03 03:53:21;;;;;;;20.02;12.98;;;;;;;;;;4949497;29;20398;-80
2021/03/03 03:55:47;;;;;;;19.80;13.50;;;1.20;99.90;;;;;;4936685;29;20384;-80
2021/03/03 03:58:13;;;;;;;19.77;13.40;;;1.00;99.90;;;;;;4950943;29;20883;-78
2021/03/03 04:00:39;;;;;;;21.17;13.27;;;1.10;99.90;;;;;;4954077;28;20398;-76
2021/03/03 04:03:05;;;;;;;20.23;13.63;;;;;;;;;;4950309;28;20449;-75
2021/03/03 04:05:31;;;;;;;21.15;13.73;;;1.20;99.90;;;;;;4942182;29;20418;-76
2021/03/03 04:07:57;;;;;;;20.42;13.70;;;1.10;99.90;;;;;;4939591;28;20506;-76
2021/03/03 04:10:29;;;;;;;19.85;13.68;;;1.00;99.90;;;;;;4952667;28;20393;-76
2021/03/03 04:12:55;;;;;;;20.67;13.85;;;;;;;;;;4940229;28;20441;-78
2021/03/03 04:15:22;;;;;;;20.48;13.20;;;1.20;99.90;;;;;;4949950;28;20414;-78
2021/03/03 04:17:48;;;;;;;19.55;13.18;;;;;;;;;;4949714;29;20415;-79
2021/03/03 04:20:15;;;;;;;20.02;12.98;;;;;;;;;;4936835;29;20541;-77
2021/03/03 04:22:41;;;;;;;21.85;13.77;;;;;;;;;;4952152;29;20382;-78
2021/03/03 04:25:09;;;;;;;20.30;13.10;;;0.80;99.90;;;;;;4955821;28;20948;-76
2021/03/03 04:27:35;;;;;;;20.85;13.60;;;-0.30;99.90;;;;;;4956019;28;20420;-77
2021/03/03 04:30:06;;;;;;;20.50;13.27;;;0.80;99.90;;;;;;4959309;28;20393;-77
2021/03/03 04:32:32;;;;;;;20.30;13.50;;;0.90;99.90;;;;;;4955803;28;20384;-79
2021/03/03 04:34:58;;;;;;;20.60;13.50;;;;;;;;;;4962781;28;20464;-79
2021/03/03 04:37:23;;;;;;;22.73;14.20;;;0.80;99.90;;;;;;4961269;28;20426;-77
2021/03/03 04:39:49;;;;;;;19.38;13.55;;;;;;;;;;4947890;28;20407;-76
2021/03/03 04:42:15;;;;;;;23.50;14.23;;;0.80;99.90;;;;;;4955875;29;20408;-77
2021/03/03 04:44:41;;;;;;;22.05;13.98;;;;;;;;;;4958137;28;20448;-77
2021/03/03 04:47:06;;;;;;;19.50;13.77;;;0.20;99.90;;;;;;4941116;28;20410;-77
2021/03/03 04:49:32;;;;;;;22.00;14.20;;;0.50;99.90;;;;;;4949852;29;20417;-76
2021/03/03 04:51:57;;;;;;;22.47;14.67;;;0.40;99.90;;;;;;4953066;28;20392;-76
2021/03/03 04:54:23;;;;;;;22.30;15.03;;;0.60;99.90;;;;;;4936141;29;20474;-77
2021/03/03 04:56:48;;;;;;;24.80;16.07;;;0.50;99.90;;;;;;4937258;29;20403;-77
2021/03/03 04:59:14;;;;;;;26.93;15.37;;;0.60;99.90;;;;;;4937100;29;20454;-78
2021/03/03 05:01:40;;;;;;;25.67;15.60;;;;;;;;;;4956379;29;20394;-78
2021/03/03 05:04:06;;;;;;;24.08;15.27;;;;;;;;;;4947952;28;20435;-78
2021/03/03 05:06:32;;;;;;;23.58;15.43;;;0.60;99.90;;;;;;4955835;29;20409;-77
2021/03/03 05:08:58;;;;;;;23.83;16.30;;;;;;;;;;4947208;28;20392;-77
2021/03/03 05:11:24;;;;;;;25.10;16.42;;;0.30;99.90;;;;;;4941821;29;20390;-76
2021/03/03 05:13:50;;;;;;;23.58;14.88;;;;;;;;;;4955732;28;20393;-76
2021/03/03 05:16:16;;;;;;;23.77;15.20;;;0.30;99.90;;;;;;4942495;28;20430;-75
2021/03/03 05:18:42;;;;;;;25.37;15.57;;;0.50;99.90;;;;;;4944793;28;20395;-76
2021/03/03 05:21:08;;;;;;;28.63;15.93;;;0.30;99.90;;;;;;4949293;29;20462;-76
2021/03/03 05:23:34;;;;;;;23.50;15.95;;;0.30;99.90;;;;;;4936546;29;20403;-77
2021/03/03 05:26:01;;;;;;;24.27;16.30;;;;;;;;;;4941744;29;20393;-78
2021/03/03 05:28:27;;;;;;;23.02;15.32;;;0.50;99.90;;;;;;4956446;28;20398;-77
2021/03/03 05:30:52;;;;;;;25.35;16.20;;;-0.30;99.90;;;;;;4957640;28;20408;-79
2021/03/03 05:33:28;;;;;;;24.50;15.82;;;;;;;;;;4947423;28;20478;-77
2021/03/03 05:35:55;;;;;;;24.93;15.53;;;;;;;;;;4955305;29;20519;-77
2021/03/03 05:38:21;;;;;;;23.25;15.50;;;-0.40;99.90;;;;;;4955344;28;20402;-77
2021/03/03 05:40:48;;;;;;;22.52;15.07;;;-0.30;99.90;;;;;;4952419;28;20400;-77
2021/03/03 05:43:15;;;;;;;25.38;15.57;;;;;;;;;;4956979;29;20412;-77
2021/03/03 05:45:41;;;;;;;23.38;15.35;;;0.00;99.90;;;;;;4943902;29;20398;-78
2021/03/03 05:48:11;;;;;;;24.95;15.82;;;;;;;;;;4944671;28;20418;-78
2021/03/03 05:50:37;;;;;;;22.65;15.15;;;;;;;;;;4945246;29;20392;-78
2021/03/03 05:53:03;;;;;;;21.23;14.52;;;;;;;;;;4944235;28;20467;-77
2021/03/03 05:55:29;;;;;;;24.40;15.40;;;0.10;99.90;;;;;;4937203;29;20867;-77
2021/03/03 05:57:59;;;;;;;26.40;16.83;;;;;;;;;;4950888;29;20394;-78
2021/03/03 06:00:26;;;;;;;25.90;18.17;;;0.40;99.90;;;;;;4943901;28;20448;-78
2021/03/03 06:02:52;;;;;;;28.75;18.88;;;;;;;;;;4957245;28;20405;-78
2021/03/03 06:05:18;;;;;;;26.77;18.23;;;0.20;99.90;;;;;;4949762;29;20502;-78
2021/03/03 06:07:46;;;;;;;28.25;17.90;;;0.40;99.90;;;;;;4951718;29;20410;-79
2021/03/03 06:10:12;;;;;;;27.53;17.23;;;0.70;99.90;;;;;;4957205;28;20428;-78
2021/03/03 06:12:38;;;;;;;31.48;19.63;;;;;;;;;;4944385;28;20953;-78
2021/03/03 06:15:04;;;;;;;44.43;27.10;;;0.20;99.90;;;;;;4949804;28;20388;-78
2021/03/03 06:17:30;;;;;;;47.40;27.67;;;;;;;;;;4951342;29;20908;-78
2021/03/03 06:19:56;;;;;;;47.88;28.40;;;;;;;;;;4938234;29;20937;-79
2021/03/03 06:22:24;;;;;;;44.17;27.33;;;0.50;99.90;;;;;;4939380;29;20391;-79
2021/03/03 06:24:50;;;;;;;43.58;26.77;;;;;;;;;;4953028;28;20407;-78
2021/03/03 06:27:16;;;;;;;42.92;26.45;;;;;;;;;;4937811;29;20786;-78
2021/03/03 06:30:00;;;;;;;43.83;26.33;;;0.70;99.90;;;;;;4935706;29;20487;-74
2021/03/03 06:32:26;;;;;;;40.85;24.67;;;;;;;;;;4940535;29;20394;-78
2021/03/03 06:34:52;;;;;;;31.92;21.85;;;;;;;;;;4956888;28;21002;-78
2021/03/03 06:37:18;;;;;;;34.88;21.42;;;;;;;;;;4941793;28;20493;-78
2021/03/03 06:39:44;;;;;;;40.58;23.98;;;;;;;;;;4956295;28;20391;-78
2021/03/03 06:42:24;;;;;;;40.17;24.38;;;;;;;;;;4951966;28;20455;-78
2021/03/03 06:44:51;;;;;;;37.00;23.40;;;;;;;;;;4944097;28;20796;-78
2021/03/03 06:47:17;;;;;;;34.28;21.27;;;0.60;99.90;;;;;;4969660;28;20441;-78
2021/03/03 06:49:43;;;;;;;31.00;18.42;;;;;;;;;;4955688;28;20405;-78
2021/03/03 06:52:09;;;;;;;29.85;18.50;;;;;;;;;;4943317;28;20433;-78
2021/03/03 06:54:35;;;;;;;29.83;17.77;;;0.80;99.90;;;;;;4951529;28;20823;-79
2021/03/03 06:57:05;;;;;;;24.67;17.45;;;;;;;;;;4949324;29;20452;-78
2021/03/03 06:59:35;;;;;;;27.40;16.95;;;1.10;99.90;;;;;;4944088;28;20459;-77
2021/03/03 07:02:07;;;;;;;31.00;19.93;;;;;;;;;;4936328;29;20985;-79
2021/03/03 07:04:36;;;;;;;37.45;25.30;;;1.00;99.90;;;;;;4939566;29;20388;-78
2021/03/03 07:07:10;;;;;;;25.77;16.55;;;1.20;99.90;;;;;;4957108;28;20447;-79
2021/03/03 07:09:58;;;;;;;28.90;16.33;;;;;;;;;;4942176;29;20391;-79
2021/03/03 07:12:26;;;;;;;31.90;22.40;;;;;;;;;;4936015;29;20390;-79
2021/03/03 07:14:57;;;;;;;46.65;30.85;;;;;;;;;;4938538;29;20391;-80
2021/03/03 07:17:23;;;;;;;32.20;22.45;;;;;;;;;;4942791;29;20910;-78
2021/03/03 07:19:52;;;;;;;30.50;19.63;;;1.40;99.90;;;;;;4946505;29;20482;-77
2021/03/03 07:22:24;;;;;;;23.80;16.93;;;1.30;99.90;;;;;;4947324;29;20533;-81
2021/03/03 07:25:08;;;;;;;26.38;17.30;;;1.40;99.90;;;;;;4941857;29;20760;-81
2021/03/03 07:27:35;;;;;;;28.15;17.27;;;1.30;99.90;;;;;;4951665;28;20887;-81
2021/03/03 07:30:27;;;;;;;27.83;17.23;;;1.50;99.90;;;;;;4943140;28;20391;-79
2021/03/03 07:32:53;;;;;;;26.45;17.27;;;;;;;;;;4939942;28;20414;-80
2021/03/03 07:35:19;;;;;;;26.63;17.35;;;;;;;;;;4952960;28;20382;-79
2021/03/03 07:37:56;;;;;;;25.08;16.45;;;1.70;99.90;;;;;;4946499;28;20415;-79
2021/03/03 07:40:31;;;;;;;24.85;15.98;;;1.70;99.90;;;;;;4947765;29;20780;-79
2021/03/03 07:43:00;;;;;;;24.73;16.30;;;1.90;99.90;;;;;;4944501;29;20381;-79
2021/03/03 07:45:28;;;;;;;26.88;16.58;;;;;;;;;;4941028;28;20834;-80
2021/03/03 07:47:54;;;;;;;26.85;18.48;;;2.00;99.90;;;;;;4953731;28;20417;-79
2021/03/03 07:50:22;;;;;;;25.00;17.17;;;2.20;99.90;;;;;;4953247;28;20440;-80
2021/03/03 07:52:50;;;;;;;24.80;16.83;;;2.20;99.90;;;;;;4953309;28;20401;-79
2021/03/03 07:55:17;;;;;;;25.83;16.67;;;;;;;;;;4953581;28;20389;-81
2021/03/03 07:57:48;;;;;;;25.23;16.10;;;2.50;99.90;;;;;;4953235;28;20389;-80
2021/03/03 08:00:24;;;;;;;24.80;16.83;;;2.50;99.90;;;;;;4953477;28;20414;-80
2021/03/03 08:02:54;;;;;;;27.13;16.88;;;;;;;;;;4953410;28;20518;-79
2021/03/03 08:05:36;;;;;;;24.77;17.03;;;2.50;99.90;;;;;;4953752;29;20393;-79
2021/03/03 08:08:11;;;;;;;25.55;16.52;;;2.50;99.90;;;;;;4965243;28;20442;-78
2021/03/03 08:10:41;;;;;;;26.88;17.25;;;2.50;99.90;;;;;;4934233;29;20803;-80
2021/03/03 08:13:15;;;;;;;24.95;17.10;;;2.50;99.90;;;;;;4933960;29;20878;-80
2021/03/03 08:15:48;;;;;;;26.07;16.73;;;2.40;99.90;;;;;;4934577;29;20398;-80
2021/03/03 08:18:13;;;;;;;24.77;17.07;;;2.40;99.90;;;;;;4932812;29;20407;-79
2021/03/03 08:20:43;;;;;;;24.00;17.20;;;2.80;99.90;;;;;;4934045;29;20743;-80
2021/03/03 08:23:09;;;;;;;25.73;17.27;;;2.60;99.90;;;;;;4934132;29;20441;-79
2021/03/03 08:25:49;;;;;;;25.95;17.02;;;3.10;99.90;;;;;;4947624;29;20401;-79
2021/03/03 08:28:24;;;;;;;25.70;17.70;;;3.00;99.90;;;;;;4944119;28;20415;-79
2021/03/03 08:31:16;;;;;;;26.35;17.08;;;3.00;99.90;;;;;;4946914;29;20423;-79
2021/03/03 08:33:45;;;;;;;26.58;16.88;;;3.00;99.90;;;;;;4949454;28;20396;-79
2021/03/03 08:36:20;;;;;;;24.80;17.05;;;;;;;;;;4964560;28;20473;-81
2021/03/03 08:38:55;;;;;;;26.20;16.48;;;3.60;99.90;;;;;;4950431;29;20388;-79
2021/03/03 08:41:28;;;;;;;24.35;16.70;;;;;;;;;;4944118;29;20753;-80
2021/03/03 08:44:01;;;;;;;23.92;16.45;;;;;;;;;;4953545;29;20390;-81
2021/03/03 08:46:30;;;;;;;22.58;15.77;;;;;;;;;;4948536;28;20511;-79
2021/03/03 08:48:55;;;;;;;22.83;15.77;;;;;;;;;;4945310;28;20410;-79
2021/03/03 08:51:36;;;;;;;27.10;17.10;;;4.20;99.90;;;;;;4946271;29;20390;-79
2021/03/03 08:54:09;;;;;;;22.15;15.80;;;4.10;99.90;;;;;;4940651;29;20393;-81
2021/03/03 08:56:49;;;;;;;23.67;16.50;;;4.30;99.90;;;;;;4940056;28;20549;-79
2021/03/03 08:59:30;;;;;;;22.77;15.93;;;;;;;;;;4953277;28;20448;-80
2021/03/03 09:02:02;;;;;;;27.52;17.88;;;4.40;99.90;;;;;;4948100;28;20395;-79
2021/03/03 09:04:33;;;;;;;25.52;17.10;;;4.70;99.90;;;;;;4947049;29;20419;-79
2021/03/03 09:07:01;;;;;;;26.63;17.17;;;4.50;99.90;;;;;;4955913;28;20419;-80
2021/03/03 09:09:28;;;;;;;26.55;17.55;;;4.50;99.90;;;;;;4941262;28;20478;-79
2021/03/03 09:11:58;;;;;;;23.15;17.02;;;4.90;99.90;;;;;;4945611;28;20385;-79
2021/03/03 09:14:24;;;;;;;24.45;17.50;;;4.70;99.90;;;;;;4938808;29;20465;-79
2021/03/03 09:16:56;;;;;;;27.23;17.33;;;4.70;99.90;;;;;;4957031;28;20428;-79
2021/03/03 09:19:22;;;;;;;28.58;16.58;;;4.80;99.90;;;;;;4944698;28;20420;-79
2021/03/03 09:21:48;;;;;;;25.98;17.33;;;5.30;99.90;;;;;;4957117;28;20413;-79
2021/03/03 09:24:15;;;;;;;29.23;18.17;;;5.00;99.90;;;;;;4956959;28;20831;-79
2021/03/03 09:26:43;;;;;;;27.13;17.30;;;;;;;;;;4957158;28;20439;-79
2021/03/03 09:29:27;;;;;;;25.30;17.17;;;4.90;99.90;;;;;;4952097;28;20398;-78
2021/03/03 09:31:53;;;;;;;25.23;17.40;;;4.70;99.90;;;;;;4937299;29;20430;-79
2021/03/03 09:34:19;;;;;;;25.88;17.00;;;4.90;99.90;;;;;;4943387;29;20390;-78
2021/03/03 09:36:53;;;;;;;24.95;16.85;;;5.30;99.90;;;;;;4944453;28;20395;-79
2021/03/03 09:39:21;;;;;;;29.25;17.42;;;4.90;99.90;;;;;;4937532;29;20576;-79
2021/03/03 09:42:03;;;;;;;25.35;16.75;;;5.20;99.90;;;;;;4944855;29;20422;-79
2021/03/03 09:44:45;;;;;;;25.20;16.77;;;5.10;99.90;;;;;;4937336;29;20474;-79
2021/03/03 09:47:11;;;;;;;27.98;17.25;;;5.80;99.90;;;;;;4955088;29;20491;-79
2021/03/03 09:49:38;;;;;;;26.92;18.02;;;5.60;99.90;;;;;;4945089;28;20954;-79
2021/03/03 09:52:05;;;;;;;26.63;17.75;;;5.80;99.90;;;;;;4941977;29;20390;-79
2021/03/03 09:54:37;;;;;;;27.85;17.40;;;5.40;99.90;;;;;;4956549;28;20447;-79
2021/03/03 09:57:13;;;;;;;25.83;17.75;;;5.60;99.90;;;;;;4937036;29;20512;-79
2021/03/03 09:59:47;;;;;;;29.55;19.40;;;6.60;99.90;;;;;;4938029;29;20414;-79
2021/03/03 10:02:16;;;;;;;31.70;18.75;;;6.10;99.90;;;;;;4954713;28;20457;-79
2021/03/03 10:04:43;;;;;;;28.52;18.15;;;5.90;99.90;;;;;;4953203;28;20419;-79
2021/03/03 10:07:18;;;;;;;26.27;17.67;;;6.70;99.90;;;;;;4936942;29;20482;-79
2021/03/03 10:09:45;;;;;;;26.25;18.27;;;6.30;99.90;;;;;;4953388;29;20411;-78
2021/03/03 10:12:16;;;;;;;35.25;19.05;;;6.70;99.90;;;;;;4955627;28;20386;-79
2021/03/03 10:15:05;;;;;;;29.35;19.35;;;6.30;99.90;;;;;;4955889;28;20415;-79
2021/03/03 10:17:33;;;;;;;28.80;18.90;;;7.10;99.90;;;;;;4969196;28;20389;-79
2021/03/03 10:20:00;;;;;;;28.80;18.80;;;8.60;99.90;;;;;;4936939;28;20431;-79
2021/03/03 10:22:26;;;;;;;27.20;18.03;;;6.20;99.90;;;;;;4950704;29;20967;-79
2021/03/03 10:25:05;;;;;;;28.45;18.55;;;7.00;99.90;;;;;;4946934;28;20394;-79
2021/03/03 10:27:39;;;;;;;30.38;19.08;;;7.10;99.90;;;;;;4936256;29;20416;-79
2021/03/03 10:30:25;;;;;;;26.95;18.88;;;6.60;99.90;;;;;;4936464;29;20395;-79
2021/03/03 10:32:53;;;;;;;28.70;19.10;;;6.60;99.90;;;;;;4942721;29;20386;-79
2021/03/03 10:35:19;;;;;;;29.98;19.58;;;6.70;99.90;;;;;;4968467;28;20404;-79
2021/03/03 10:37:45;;;;;;;28.88;18.85;;;6.50;99.90;;;;;;4955475;28;20433;-79
2021/03/03 10:40:16;;;;;;;29.20;19.67;;;6.50;99.90;;;;;;4955635;28;20417;-79
2021/03/03 10:42:42;;;;;;;32.42;20.80;;;6.50;99.90;;;;;;4953618;28;20408;-79
2021/03/03 10:45:28;;;;;;;28.13;19.33;;;7.20;99.90;;;;;;4955141;28;20396;-79
2021/03/03 10:47:54;;;;;;;31.52;20.15;;;7.10;99.90;;;;;;4954854;28;20413;-79
2021/03/03 10:50:20;;;;;;;29.85;20.83;;;7.50;99.90;;;;;;4938430;28;20940;-79
2021/03/03 10:53:05;;;;;;;31.73;20.80;;;7.60;99.90;;;;;;4935892;29;20388;-79
2021/03/03 10:55:38;;;;;;;29.05;19.58;;;7.70;99.90;;;;;;4937973;29;20395;-79
2021/03/03 10:58:09;;;;;;;31.47;20.53;;;7.70;99.90;;;;;;4949822;29;20405;-79
2021/03/03 11:01:01;;;;;;;30.03;19.67;;;7.80;99.90;;;;;;4964551;28;20411;-79
2021/03/03 11:03:29;;;;;;;31.77;19.95;;;7.80;99.90;;;;;;4965547;28;20941;-76
2021/03/03 11:05:59;;;;;;;33.00;20.17;;;7.40;99.90;;;;;;4969569;28;20404;-78
2021/03/03 11:08:26;;;;;;;33.63;20.92;;;7.60;99.90;;;;;;4959990;28;20453;-78
2021/03/03 11:10:52;;;;;;;34.58;20.83;;;;;;;;;;4960705;28;20384;-78
2021/03/03 11:13:18;;;;;;;30.20;20.55;;;;;;;;;;4965376;28;20382;-78
2021/03/03 11:15:45;;;;;;;30.48;20.48;;;7.50;99.90;;;;;;4973663;28;20404;-78
2021/03/03 11:18:11;;;;;;;32.28;20.83;;;7.40;99.90;;;;;;4957058;28;20404;-78
2021/03/03 11:20:38;;;;;;;34.40;21.15;;;;;;;;;;4970308;28;20443;-78
2021/03/03 11:23:05;;;;;;;30.55;20.45;;;8.00;99.90;;;;;;4964193;28;21041;-78
2021/03/03 11:25:33;;;;;;;30.23;20.92;;;7.50;99.90;;;;;;4970291;28;20393;-78
2021/03/03 11:28:09;;;;;;;;;;;;;;;;;;;;;
2021/03/03 11:30:37;;;;;;;31.13;21.27;;;;;;;;;;4963909;28;20404;-78
2021/03/03 11:33:03;;;;;;;33.00;20.80;;;;;;;;;;4965531;28;20411;-78
2021/03/03 11:35:31;;;;;;;32.80;20.33;;;7.90;99.90;;;;;;4971772;28;20391;-78
2021/03/03 11:37:57;;;;;;;32.08;21.23;;;8.40;99.90;;;;;;4969728;28;20837;-78
2021/03/03 11:40:22;;;;;;;34.83;21.58;;;8.60;99.90;;;;;;4967825;28;20429;-79
2021/03/03 11:42:48;;;;;;;31.73;21.10;;;8.70;99.90;;;;;;4958801;28;20909;-78
2021/03/03 11:45:14;;;;;;;34.92;21.52;;;8.60;99.90;;;;;;4971049;28;20892;-79
2021/03/03 11:47:46;;;;;;;31.42;22.48;;;;;;;;;;4966249;28;20559;-79
2021/03/03 11:50:12;;;;;;;29.95;20.48;;;;;;;;;;4960444;28;20423;-79
2021/03/03 11:52:38;;;;;;;32.47;20.95;;;;;;;;;;4956968;28;20388;-78
2021/03/03 11:55:05;;;;;;;35.15;22.08;;;8.80;99.90;;;;;;4965094;28;20389;-78
2021/03/03 11:57:30;;;;;;;31.77;20.70;;;8.90;99.90;;;;;;4972251;28;20398;-79
2021/03/03 12:00:06;;;;;;;30.60;21.25;;;;;;;;;;4966117;28;20456;-78
2021/03/03 12:02:33;;;;;;;32.22;22.20;;;;;;;;;;4972116;28;20392;-78
2021/03/03 12:04:58;;;;;;;32.28;21.52;;;8.80;99.90;;;;;;4969963;28;20442;-79
2021/03/03 12:07:24;;;;;;;30.20;21.42;;;9.30;99.90;;;;;;4987763;28;20423;-78
2021/03/03 12:09:50;;;;;;;35.47;21.63;;;;;;;;;;4967840;28;20392;-78
2021/03/03 12:12:15;;;;;;;31.33;21.65;;;8.90;99.90;;;;;;4972214;28;20384;-78
2021/03/03 12:14:41;;;;;;;30.98;21.65;;;8.60;99.90;;;;;;4964593;28;20393;-78
2021/03/03 12:17:07;;;;;;;33.92;22.23;;;9.20;99.90;;;;;;4964830;28;20473;-78
2021/03/03 12:19:33;;;;;;;34.92;22.35;;;8.90;99.90;;;;;;4952222;28;20414;-78
2021/03/03 12:21:58;;;;;;;30.90;21.67;;;9.10;99.90;;;;;;4949677;28;20396;-78
2021/03/03 12:24:24;;;;;;;34.70;22.33;;;9.10;99.90;;;;;;4969249;28;20402;-78
2021/03/03 12:26:50;;;;;;;32.57;22.50;;;8.90;99.90;;;;;;4964779;28;20441;-78
2021/03/03 12:29:16;;;;;;;33.58;22.80;;;9.50;99.90;;;;;;4965442;28;20397;-78
2021/03/03 12:31:41;;;;;;;31.03;22.43;;;9.40;99.90;;;;;;4964030;28;20405;-78
2021/03/03 12:34:07;;;;;;;35.83;23.67;;;9.60;99.90;;;;;;4968299;28;20455;-78
2021/03/03 12:36:32;;;;;;;36.20;24.08;;;9.90;99.90;;;;;;4972142;28;20445;-78
2021/03/03 12:38:58;;;;;;;39.28;25.10;;;9.80;99.90;;;;;;4957706;28;20880;-78
2021/03/03 12:41:24;;;;;;;36.03;25.13;;;;;;;;;;4968583;28;20755;-78
2021/03/03 12:43:50;;;;;;;39.15;24.98;;;10.10;99.90;;;;;;4962233;28;20391;-78
2021/03/03 12:46:16;;;;;;;38.83;26.10;;;9.90;99.90;;;;;;4970809;28;20395;-78
2021/03/03 12:48:41;;;;;;;39.60;26.47;;;10.00;99.90;;;;;;4964312;28;20384;-78
2021/03/03 12:51:07;;;;;;;48.57;28.73;;;11.80;99.90;;;;;;4968031;28;20388;-79
2021/03/03 12:53:32;;;;;;;43.37;27.50;;;9.20;99.90;;;;;;4955257;28;20402;-77
2021/03/03 12:56:16;;;;;;;35.90;26.95;;;;;;;;;;4966796;28;20869;-79
2021/03/03 12:58:51;;;;;;;39.85;27.10;;;;;;;;;;4970645;28;20380;-79
2021/03/03 13:01:17;;;;;;;53.08;28.75;;;;;;;;;;4960450;28;21042;-79
2021/03/03 13:03:45;;;;;;;43.13;27.63;;;;;;;;;;4972301;28;20394;-79
2021/03/03 13:06:11;;;;;;;47.72;28.80;;;;;;;;;;4975354;28;20388;-79
2021/03/03 13:08:37;;;;;;;39.55;27.50;;;;;;;;;;4960752;28;20397;-79
2021/03/03 13:11:03;;;;;;;38.08;26.92;;;;;;;;;;4974452;28;20376;-78
2021/03/03 13:13:30;;;;;;;40.50;27.20;;;;;;;;;;4968653;28;20416;-79
2021/03/03 13:15:56;;;;;;;42.20;28.27;;;;;;;;;;4971631;28;20384;-79